sensor_id;sensor_type;location;lat;lon;timestamp;temperature;humidity
15815;DHT22;8008;50.024;8.172;2023-07-31T03:01:23;18.40;99.90
15815;DHT22;8008;50.024;8.172;2023-07-31T03:03:51;18.30;99.90
15815;DHT22;8008;50.024;8.172;2023-07-31T03:06:19;18.30;99.90
15815;DHT22;8008;50.024;8.172;2023-07-31T03:08:47;18.30;99.90
15815;DHT22;8008;50.024;8.172;2023-07-31T03:11:15;18.30;99.90
15815;DHT22;8008;50.024;8.172;2023-07-31T03:13:43;18.30;99.90
15815;DHT22;8008;50.024;8.172;2023-07-31T03:16:11;18.20;99.90
15815;DHT22;8008;50.024;8.172;2023-07-31T03:18:40;18.20;99.90
15815;DHT22;8008;50.024;8.172;2023-07-31T03:21:08;18.10;99.90
15815;DHT22;8008;50.024;8.172;2023-07-31T03:23:36;18.10;99.90
15815;DHT22;8008;50.024;8.172;2023-07-31T03:26:07;18.10;99.90
15815;DHT22;8008;50.024;8.172;2023-07-31T03:28:35;18.10;99.90
15815;DHT22;8008;50.024;8.172;2023-07-31T03:31:04;18.10;99.90
15815;DHT22;8008;50.024;8.172;2023-07-31T03:33:33;18.10;99.90
15815;DHT22;8008;50.024;8.172;2023-07-31T03:36:02;18.10;99.90
15815;DHT22;8008;50.024;8.172;2023-07-31T03:38:30;18.20;99.90
15815;DHT22;8008;50.024;8.172;2023-07-31T03:40:58;18.20;99.90
15815;DHT22;8008;50.024;8.172;2023-07-31T03:43:26;18.20;99.90
15815;DHT22;8008;50.024;8.172;2023-07-31T03:45:54;18.20;99.90
15815;DHT22;8008;50.024;8.172;2023-07-31T03:48:24;18.20;99.90
15815;DHT22;8008;50.024;8.172;2023-07-31T03:50:52;18.20;99.90
15815;DHT22;8008;50.024;8.172;2023-07-31T03:53:23;18.20;99.90
15815;DHT22;8008;50.024;8.172;2023-07-31T03:55:50;18.20;99.90
15815;DHT22;8008;50.024;8.172;2023-07-31T03:58:18;18.20;99.90
15815;DHT22;8008;50.024;8.172;2023-07-31T04:00:47;18.20;99.90
15815;DHT22;8008;50.024;8.172;2023-07-31T04:03:15;18.20;99.90
15815;DHT22;8008;50.024;8.172;2023-07-31T04:05:43;18.20;99.90
15815;DHT22;8008;50.024;8.172;2023-07-31T04:08:11;18.20;99.90
15815;DHT22;8008;50.024;8.172;2023-07-31T04:10:40;18.20;99.90
15815;DHT22;8008;50.024;8.172;2023-07-31T04:13:08;18.20;99.90
15815;DHT22;8008;50.024;8.172;2023-07-31T04:15:36;18.20;99.90
15815;DHT22;8008;50.024;8.172;2023-07-31T04:18:04;18.20;99.90
15815;DHT22;8008;50.024;8.172;2023-07-31T04:20:32;18.20;99.90
15815;DHT22;8008;50.024;8.172;2023-07-31T04:23:00;18.20;99.90
15815;DHT22;8008;50.024;8.172;2023-07-31T04:25:28;18.20;99.90
15815;DHT22;8008;50.024;8.172;2023-07-31T04:27:57;18.20;99.90
15815;DHT22;8008;50.024;8.172;2023-07-31T04:30:25;18.10;99.90
15815;DHT22;8008;50.024;8.172;2023-07-31T04:32:53;18.10;99.90
15815;DHT22;8008;50.024;8.172;2023-07-31T04:35:21;18.10;99.90
15815;DHT22;8008;50.024;8.172;2023-07-31T04:37:49;18.10;99.90
15815;DHT22;8008;50.024;8.172;2023-07-31T04:40:17;18.10;99.90
15815;DHT22;8008;50.024;8.172;2023-07-31T04:42:45;18.00;99.90
15815;DHT22;8008;50.024;8.172;2023-07-31T04:45:14;18.10;99.90
15815;DHT22;8008;50.024;8.172;2023-07-31T04:47:42;18.10;99.90
15815;DHT22;8008;50.024;8.172;2023-07-31T04:50:10;18.10;99.90
15815;DHT22;8008;50.024;8.172;2023-07-31T04:52:38;18.10;99.90
15815;DHT22;8008;50.024;8.172;2023-07-31T04:55:07;18.10;99.90
15815;DHT22;8008;50.024;8.172;2023-07-31T04:57:35;18.10;99.90
15815;DHT22;8008;50.024;8.172;2023-07-31T05:00:03;18.10;99.90
15815;DHT22;8008;50.024;8.172;2023-07-31T05:02:33;18.10;99.90
15815;DHT22;8008;50.024;8.172;2023-07-31T05:05:01;18.10;99.90
15815;DHT22;8008;50.024;8.172;2023-07-31T05:07:29;18.10;99.90
15815;DHT22;8008;50.024;8.172;2023-07-31T05:09:57;18.20;99.90
15815;DHT22;8008;50.024;8.172;2023-07-31T05:12:25;18.20;99.90
15815;DHT22;8008;50.024;8.172;2023-07-31T05:14:53;18.20;99.90
15815;DHT22;8008;50.024;8.172;2023-07-31T05:17:21;18.30;99.90
15815;DHT22;8008;50.024;8.172;2023-07-31T05:19:51;18.30;99.90
15815;DHT22;8008;50.024;8.172;2023-07-31T05:22:19;18.30;99.90
15815;DHT22;8008;50.024;8.172;2023-07-31T05:24:46;18.30;99.90
15815;DHT22;8008;50.024;8.172;2023-07-31T05:27:14;18.30;99.90
15815;DHT22;8008;50.024;8.172;2023-07-31T05:29:45;18.30;99.90
15815;DHT22;8008;50.024;8.172;2023-07-31T05:32:13;18.30;99.90
15815;DHT22;8008;50.024;8.172;2023-07-31T05:34:41;18.40;99.90
15815;DHT22;8008;50.024;8.172;2023-07-31T05:37:11;18.30;99.90
15815;DHT22;8008;50.024;8.172;2023-07-31T05:39:39;18.40;99.90
15815;DHT22;8008;50.024;8.172;2023-07-31T05:42:07;18.40;99.90
15815;DHT22;8008;50.024;8.172;2023-07-31T05:44:35;18.40;99.90
15815;DHT22;8008;50.024;8.172;2023-07-31T05:47:03;18.40;99.90
15815;DHT22;8008;50.024;8.172;2023-07-31T05:49:34;18.40;99.90
15815;DHT22;8008;50.024;8.172;2023-07-31T05:52:02;18.40;99.90
15815;DHT22;8008;50.024;8.172;2023-07-31T05:54:32;18.40;99.90
15815;DHT22;8008;50.024;8.172;2023-07-31T05:57:00;18.50;99.90
15815;DHT22;8008;50.024;8.172;2023-07-31T05:59:28;18.50;99.90
15815;DHT22;8008;50.024;8.172;2023-07-31T06:01:57;18.50;99.90
15815;DHT22;8008;50.024;8.172;2023-07-31T06:04:25;18.50;99.90
15815;DHT22;8008;50.024;8.172;2023-07-31T06:06:53;18.60;99.90
15815;DHT22;8008;50.024;8.172;2023-07-31T06:09:22;18.70;99.90
15815;DHT22;8008;50.024;8.172;2023-07-31T06:11:51;18.60;99.90
15815;DHT22;8008;50.024;8.172;2023-07-31T06:14:19;18.70;99.90
15815;DHT22;8008;50.024;8.172;2023-07-31T06:16:47;18.70;99.90
15815;DHT22;8008;50.024;8.172;2023-07-31T06:19:15;18.80;99.90
15815;DHT22;8008;50.024;8.172;2023-07-31T06:21:43;18.70;99.90
15815;DHT22;8008;50.024;8.172;2023-07-31T06:24:11;18.70;99.90
15815;DHT22;8008;50.024;8.172;2023-07-31T06:26:39;18.70;99.90
15815;DHT22;8008;50.024;8.172;2023-07-31T06:29:09;18.80;99.90
15815;DHT22;8008;50.024;8.172;2023-07-31T06:31:37;18.80;99.90
15815;DHT22;8008;50.024;8.172;2023-07-31T06:34:05;18.80;99.90
15815;DHT22;8008;50.024;8.172;2023-07-31T06:36:33;18.80;99.90
15815;DHT22;8008;50.024;8.172;2023-07-31T06:39:01;18.90;99.90
15815;DHT22;8008;50.024;8.172;2023-07-31T06:41:30;18.90;99.90
15815;DHT22;8008;50.024;8.172;2023-07-31T06:43:59;18.90;99.90
15815;DHT22;8008;50.024;8.172;2023-07-31T06:46:28;19.00;99.90
15815;DHT22;8008;50.024;8.172;2023-07-31T06:48:56;19.00;99.90
15815;DHT22;8008;50.024;8.172;2023-07-31T06:51:24;19.00;99.90
15815;DHT22;8008;50.024;8.172;2023-07-31T06:53:52;19.00;99.90
15815;DHT22;8008;50.024;8.172;2023-07-31T06:56:21;19.10;99.90
15815;DHT22;8008;50.024;8.172;2023-07-31T06:58:49;19.00;99.90
15815;DHT22;8008;50.024;8.172;2023-07-31T07:01:17;19.10;99.90
15815;DHT22;8008;50.024;8.172;2023-07-31T07:03:46;19.20;99.90
15815;DHT22;8008;50.024;8.172;2023-07-31T07:06:17;19.30;99.90
15815;DHT22;8008;50.024;8.172;2023-07-31T07:08:45;19.50;99.90
15815;DHT22;8008;50.024;8.172;2023-07-31T07:11:13;19.50;99.90
15815;DHT22;8008;50.024;8.172;2023-07-31T07:13:41;19.60;99.90
15815;DHT22;8008;50.024;8.172;2023-07-31T07:16:09;19.70;99.90
15815;DHT22;8008;50.024;8.172;2023-07-31T07:18:37;19.70;99.90
15815;DHT22;8008;50.024;8.172;2023-07-31T07:21:21;19.80;99.90
15815;DHT22;8008;50.024;8.172;2023-07-31T07:23:49;19.90;99.90
15815;DHT22;8008;50.024;8.172;2023-07-31T07:26:17;19.90;99.90
15815;DHT22;8008;50.024;8.172;2023-07-31T07:28:45;19.90;99.90
15815;DHT22;8008;50.024;8.172;2023-07-31T07:31:13;19.80;99.90
15815;DHT22;8008;50.024;8.172;2023-07-31T07:33:41;19.70;99.90
15815;DHT22;8008;50.024;8.172;2023-07-31T07:36:09;19.70;99.90
15815;DHT22;8008;50.024;8.172;2023-07-31T07:38:38;19.70;99.90
15815;DHT22;8008;50.024;8.172;2023-07-31T07:41:06;19.70;99.90
15815;DHT22;8008;50.024;8.172;2023-07-31T07:43:34;19.70;99.90
15815;DHT22;8008;50.024;8.172;2023-07-31T07:46:02;19.80;99.90
15815;DHT22;8008;50.024;8.172;2023-07-31T07:48:30;19.80;99.90
15815;DHT22;8008;50.024;8.172;2023-07-31T07:50:58;19.80;99.90
15815;DHT22;8008;50.024;8.172;2023-07-31T07:53:26;19.90;99.90
15815;DHT22;8008;50.024;8.172;2023-07-31T07:55:55;20.00;99.90
15815;DHT22;8008;50.024;8.172;2023-07-31T07:58:23;20.00;99.90
15815;DHT22;8008;50.024;8.172;2023-07-31T08:00:51;20.10;99.90
15815;DHT22;8008;50.024;8.172;2023-07-31T08:03:19;19.90;99.90
15815;DHT22;8008;50.024;8.172;2023-07-31T08:05:48;20.00;99.90
15815;DHT22;8008;50.024;8.172;2023-07-31T08:08:16;20.00;99.90
15815;DHT22;8008;50.024;8.172;2023-07-31T08:10:44;20.10;99.90
15815;DHT22;8008;50.024;8.172;2023-07-31T08:13:13;20.10;99.90
15815;DHT22;8008;50.024;8.172;2023-07-31T08:15:41;20.10;99.90
15815;DHT22;8008;50.024;8.172;2023-07-31T08:18:09;20.20;99.90
15815;DHT22;8008;50.024;8.172;2023-07-31T08:20:38;20.20;99.90
15815;DHT22;8008;50.024;8.172;2023-07-31T08:23:06;20.30;99.90
15815;DHT22;8008;50.024;8.172;2023-07-31T08:25:34;20.20;99.90
15815;DHT22;8008;50.024;8.172;2023-07-31T08:28:02;20.30;99.90
15815;DHT22;8008;50.024;8.172;2023-07-31T08:30:33;20.40;99.90
15815;DHT22;8008;50.024;8.172;2023-07-31T08:33:01;20.50;99.90
15815;DHT22;8008;50.024;8.172;2023-07-31T08:35:29;20.70;99.90
15815;DHT22;8008;50.024;8.172;2023-07-31T08:37:57;20.70;99.90
15815;DHT22;8008;50.024;8.172;2023-07-31T08:40:25;20.70;99.90
15815;DHT22;8008;50.024;8.172;2023-07-31T08:42:55;20.70;99.90
15815;DHT22;8008;50.024;8.172;2023-07-31T08:45:23;20.70;99.90
15815;DHT22;8008;50.024;8.172;2023-07-31T08:47:52;20.70;99.90
15815;DHT22;8008;50.024;8.172;2023-07-31T08:50:21;20.60;99.90
15815;DHT22;8008;50.024;8.172;2023-07-31T08:52:51;20.50;99.90
15815;DHT22;8008;50.024;8.172;2023-07-31T08:55:21;20.50;99.90
15815;DHT22;8008;50.024;8.172;2023-07-31T08:57:51;20.40;99.90
15815;DHT22;8008;50.024;8.172;2023-07-31T09:00:20;20.50;99.90
15815;DHT22;8008;50.024;8.172;2023-07-31T09:02:57;20.50;99.90
15815;DHT22;8008;50.024;8.172;2023-07-31T09:05:29;20.60;99.90
15815;DHT22;8008;50.024;8.172;2023-07-31T09:07:57;20.70;99.90
15815;DHT22;8008;50.024;8.172;2023-07-31T09:10:25;20.80;99.90
15815;DHT22;8008;50.024;8.172;2023-07-31T09:12:54;20.90;99.90
15815;DHT22;8008;50.024;8.172;2023-07-31T09:15:23;21.00;99.90
15815;DHT22;8008;50.024;8.172;2023-07-31T09:18:06;20.90;99.90
15815;DHT22;8008;50.024;8.172;2023-07-31T09:20:34;20.90;99.90
15815;DHT22;8008;50.024;8.172;2023-07-31T09:23:06;20.90;99.90
15815;DHT22;8008;50.024;8.172;2023-07-31T09:25:36;20.90;99.90
15815;DHT22;8008;50.024;8.172;2023-07-31T09:28:05;20.90;99.90
15815;DHT22;8008;50.024;8.172;2023-07-31T09:30:45;21.00;99.90
15815;DHT22;8008;50.024;8.172;2023-07-31T09:33:15;21.00;99.90
15815;DHT22;8008;50.024;8.172;2023-07-31T09:35:43;21.00;99.90
15815;DHT22;8008;50.024;8.172;2023-07-31T09:38:12;21.00;99.90
15815;DHT22;8008;50.024;8.172;2023-07-31T09:40:41;21.10;99.90
15815;DHT22;8008;50.024;8.172;2023-07-31T09:43:10;21.20;99.90
15815;DHT22;8008;50.024;8.172;2023-07-31T09:45:40;21.20;99.40
15815;DHT22;8008;50.024;8.172;2023-07-31T09:48:09;21.30;99.80
15815;DHT22;8008;50.024;8.172;2023-07-31T09:50:39;21.30;99.50
15815;DHT22;8008;50.024;8.172;2023-07-31T09:53:08;21.30;99.40
15815;DHT22;8008;50.024;8.172;2023-07-31T09:55:37;21.30;99.10
15815;DHT22;8008;50.024;8.172;2023-07-31T09:58:07;21.20;99.30
15815;DHT22;8008;50.024;8.172;2023-07-31T10:00:35;21.30;99.30
15815;DHT22;8008;50.024;8.172;2023-07-31T10:03:05;21.40;99.70
15815;DHT22;8008;50.024;8.172;2023-07-31T10:05:35;21.40;98.80
15815;DHT22;8008;50.024;8.172;2023-07-31T10:08:04;21.50;98.80
15815;DHT22;8008;50.024;8.172;2023-07-31T10:10:34;21.50;97.80
15815;DHT22;8008;50.024;8.172;2023-07-31T10:13:04;21.50;98.40
15815;DHT22;8008;50.024;8.172;2023-07-31T10:15:32;21.60;97.60
15815;DHT22;8008;50.024;8.172;2023-07-31T10:18:01;21.70;96.90
15815;DHT22;8008;50.024;8.172;2023-07-31T10:20:29;21.70;96.70
15815;DHT22;8008;50.024;8.172;2023-07-31T10:22:58;21.80;96.70
15815;DHT22;8008;50.024;8.172;2023-07-31T10:25:28;21.80;96.70
15815;DHT22;8008;50.024;8.172;2023-07-31T10:27:57;21.90;97.00
15815;DHT22;8008;50.024;8.172;2023-07-31T10:30:27;21.80;96.60
15815;DHT22;8008;50.024;8.172;2023-07-31T10:32:57;21.90;97.20
15815;DHT22;8008;50.024;8.172;2023-07-31T10:35:27;21.90;97.20
15815;DHT22;8008;50.024;8.172;2023-07-31T10:37:55;21.80;96.10
15815;DHT22;8008;50.024;8.172;2023-07-31T10:40:38;21.80;96.10
15815;DHT22;8008;50.024;8.172;2023-07-31T10:43:06;21.70;95.30
15815;DHT22;8008;50.024;8.172;2023-07-31T10:45:36;21.70;95.70
15815;DHT22;8008;50.024;8.172;2023-07-31T10:48:06;22.00;96.00
15815;DHT22;8008;50.024;8.172;2023-07-31T10:50:37;22.10;95.70
15815;DHT22;8008;50.024;8.172;2023-07-31T10:53:06;22.00;95.30
15815;DHT22;8008;50.024;8.172;2023-07-31T10:55:40;22.10;95.50
15815;DHT22;8008;50.024;8.172;2023-07-31T10:58:10;22.20;96.30
15815;DHT22;8008;50.024;8.172;2023-07-31T11:00:39;22.20;95.80
15815;DHT22;8008;50.024;8.172;2023-07-31T11:03:08;22.30;95.20
15815;DHT22;8008;50.024;8.172;2023-07-31T11:05:45;22.30;95.60
15815;DHT22;8008;50.024;8.172;2023-07-31T11:08:13;22.50;94.90
15815;DHT22;8008;50.024;8.172;2023-07-31T11:10:44;22.60;94.40
15815;DHT22;8008;50.024;8.172;2023-07-31T11:13:12;22.50;94.50
15815;DHT22;8008;50.024;8.172;2023-07-31T11:15:40;22.50;94.70
15815;DHT22;8008;50.024;8.172;2023-07-31T11:18:08;22.60;94.50
15815;DHT22;8008;50.024;8.172;2023-07-31T11:20:38;22.60;94.30
15815;DHT22;8008;50.024;8.172;2023-07-31T11:23:09;22.50;94.20
15815;DHT22;8008;50.024;8.172;2023-07-31T11:25:37;22.60;93.30
15815;DHT22;8008;50.024;8.172;2023-07-31T11:28:09;22.50;93.20
15815;DHT22;8008;50.024;8.172;2023-07-31T11:30:37;22.60;93.30
15815;DHT22;8008;50.024;8.172;2023-07-31T11:33:07;22.50;92.90
15815;DHT22;8008;50.024;8.172;2023-07-31T11:35:43;22.50;93.10
15815;DHT22;8008;50.024;8.172;2023-07-31T11:38:12;22.50;93.10
15815;DHT22;8008;50.024;8.172;2023-07-31T11:40:48;22.50;93.40
15815;DHT22;8008;50.024;8.172;2023-07-31T11:43:18;22.40;93.70
15815;DHT22;8008;50.024;8.172;2023-07-31T11:45:47;22.60;93.60
15815;DHT22;8008;50.024;8.172;2023-07-31T11:48:20;22.70;93.40
15815;DHT22;8008;50.024;8.172;2023-07-31T11:50:50;22.60;93.40
15815;DHT22;8008;50.024;8.172;2023-07-31T11:53:22;22.60;93.50
15815;DHT22;8008;50.024;8.172;2023-07-31T11:55:51;22.70;93.70
15815;DHT22;8008;50.024;8.172;2023-07-31T11:58:22;22.80;93.90
15815;DHT22;8008;50.024;8.172;2023-07-31T12:00:50;22.70;93.70
15815;DHT22;8008;50.024;8.172;2023-07-31T12:03:18;22.60;93.70
15815;DHT22;8008;50.024;8.172;2023-07-31T12:05:47;22.50;94.10
15815;DHT22;8008;50.024;8.172;2023-07-31T12:08:15;22.60;94.00
15815;DHT22;8008;50.024;8.172;2023-07-31T12:10:43;22.70;94.30
15815;DHT22;8008;50.024;8.172;2023-07-31T12:13:21;22.80;94.60
15815;DHT22;8008;50.024;8.172;2023-07-31T12:15:54;22.90;94.80
15815;DHT22;8008;50.024;8.172;2023-07-31T12:18:23;22.80;94.70
15815;DHT22;8008;50.024;8.172;2023-07-31T12:20:54;22.90;94.20
15815;DHT22;8008;50.024;8.172;2023-07-31T12:23:25;23.00;94.20
15815;DHT22;8008;50.024;8.172;2023-07-31T12:26:02;23.10;94.40
15815;DHT22;8008;50.024;8.172;2023-07-31T12:28:35;23.10;93.70
15815;DHT22;8008;50.024;8.172;2023-07-31T12:31:04;23.20;93.30
15815;DHT22;8008;50.024;8.172;2023-07-31T12:33:33;23.40;93.30
15815;DHT22;8008;50.024;8.172;2023-07-31T12:36:02;23.70;92.70
15815;DHT22;8008;50.024;8.172;2023-07-31T12:38:30;24.60;93.00
15815;DHT22;8008;50.024;8.172;2023-07-31T12:40:58;25.20;91.50
15815;DHT22;8008;50.024;8.172;2023-07-31T12:43:26;25.60;90.60
15815;DHT22;8008;50.024;8.172;2023-07-31T12:45:55;25.80;90.50
15815;DHT22;8008;50.024;8.172;2023-07-31T12:48:23;25.20;89.70
15815;DHT22;8008;50.024;8.172;2023-07-31T12:50:51;25.00;90.10
15815;DHT22;8008;50.024;8.172;2023-07-31T12:53:19;24.60;89.70
15815;DHT22;8008;50.024;8.172;2023-07-31T12:55:47;24.40;90.50
15815;DHT22;8008;50.024;8.172;2023-07-31T12:58:15;24.10;90.40
15815;DHT22;8008;50.024;8.172;2023-07-31T13:00:43;23.90;90.90
15815;DHT22;8008;50.024;8.172;2023-07-31T13:03:13;23.60;91.20
15815;DHT22;8008;50.024;8.172;2023-07-31T13:05:41;23.60;91.50
15815;DHT22;8008;50.024;8.172;2023-07-31T13:08:09;23.60;91.50
15815;DHT22;8008;50.024;8.172;2023-07-31T13:10:38;23.60;91.80
15815;DHT22;8008;50.024;8.172;2023-07-31T13:13:06;23.70;91.40
15815;DHT22;8008;50.024;8.172;2023-07-31T13:15:34;23.80;91.40
15815;DHT22;8008;50.024;8.172;2023-07-31T13:18:02;23.90;91.90
15815;DHT22;8008;50.024;8.172;2023-07-31T13:20:31;24.00;92.10
15815;DHT22;8008;50.024;8.172;2023-07-31T13:22:59;23.80;91.60
15815;DHT22;8008;50.024;8.172;2023-07-31T13:25:27;23.70;91.50
15815;DHT22;8008;50.024;8.172;2023-07-31T13:27:55;23.60;91.80
15815;DHT22;8008;50.024;8.172;2023-07-31T13:30:26;23.60;91.90
15815;DHT22;8008;50.024;8.172;2023-07-31T13:32:55;23.40;91.60
15815;DHT22;8008;50.024;8.172;2023-07-31T13:35:23;23.50;92.30
15815;DHT22;8008;50.024;8.172;2023-07-31T13:37:52;23.40;92.30
15815;DHT22;8008;50.024;8.172;2023-07-31T13:40:20;23.50;92.20
15815;DHT22;8008;50.024;8.172;2023-07-31T13:42:48;23.40;92.60
15815;DHT22;8008;50.024;8.172;2023-07-31T13:45:16;23.40;93.00
15815;DHT22;8008;50.024;8.172;2023-07-31T13:47:44;23.30;93.20
15815;DHT22;8008;50.024;8.172;2023-07-31T13:50:12;23.20;93.50
15815;DHT22;8008;50.024;8.172;2023-07-31T13:52:40;23.00;93.10
15815;DHT22;8008;50.024;8.172;2023-07-31T13:55:10;23.00;93.10
15815;DHT22;8008;50.024;8.172;2023-07-31T13:57:38;22.90;93.30
15815;DHT22;8008;50.024;8.172;2023-07-31T14:00:07;22.80;93.40
15815;DHT22;8008;50.024;8.172;2023-07-31T14:02:35;22.70;93.70
15815;DHT22;8008;50.024;8.172;2023-07-31T14:05:04;22.70;93.60
15815;DHT22;8008;50.024;8.172;2023-07-31T14:07:32;22.70;93.70
15815;DHT22;8008;50.024;8.172;2023-07-31T14:10:00;22.70;93.90
15815;DHT22;8008;50.024;8.172;2023-07-31T14:12:29;22.70;93.60
15815;DHT22;8008;50.024;8.172;2023-07-31T14:15:08;22.60;93.60
15815;DHT22;8008;50.024;8.172;2023-07-31T14:17:36;22.60;93.70
15815;DHT22;8008;50.024;8.172;2023-07-31T14:20:06;22.60;93.90
15815;DHT22;8008;50.024;8.172;2023-07-31T14:22:34;22.70;93.90
15815;DHT22;8008;50.024;8.172;2023-07-31T14:25:02;22.80;93.70
15815;DHT22;8008;50.024;8.172;2023-07-31T14:27:33;22.80;94.00
15815;DHT22;8008;50.024;8.172;2023-07-31T14:30:01;23.00;93.90
15815;DHT22;8008;50.024;8.172;2023-07-31T14:32:29;23.00;93.90
15815;DHT22;8008;50.024;8.172;2023-07-31T14:34:57;23.00;93.70
15815;DHT22;8008;50.024;8.172;2023-07-31T14:37:26;22.90;93.10
15815;DHT22;8008;50.024;8.172;2023-07-31T14:39:55;22.80;93.40
15815;DHT22;8008;50.024;8.172;2023-07-31T14:42:23;22.70;93.30
15815;DHT22;8008;50.024;8.172;2023-07-31T14:44:52;22.70;93.30
15815;DHT22;8008;50.024;8.172;2023-07-31T14:47:20;22.70;93.50
15815;DHT22;8008;50.024;8.172;2023-07-31T14:49:48;22.70;93.10
15815;DHT22;8008;50.024;8.172;2023-07-31T14:52:16;22.70;93.00
15815;DHT22;8008;50.024;8.172;2023-07-31T14:54:44;22.60;93.40
15815;DHT22;8008;50.024;8.172;2023-07-31T14:57:12;22.80;93.40
15815;DHT22;8008;50.024;8.172;2023-07-31T14:59:40;23.00;93.30
15815;DHT22;8008;50.024;8.172;2023-07-31T15:02:09;22.90;93.00
15815;DHT22;8008;50.024;8.172;2023-07-31T15:04:38;22.90;93.30
15815;DHT22;8008;50.024;8.172;2023-07-31T15:07:06;22.80;93.20
15815;DHT22;8008;50.024;8.172;2023-07-31T15:09:34;22.80;93.50
15815;DHT22;8008;50.024;8.172;2023-07-31T15:12:02;22.60;92.20
15815;DHT22;8008;50.024;8.172;2023-07-31T15:14:30;22.40;92.60
15815;DHT22;8008;50.024;8.172;2023-07-31T15:16:58;22.20;92.70
15815;DHT22;8008;50.024;8.172;2023-07-31T15:19:27;22.10;92.60
15815;DHT22;8008;50.024;8.172;2023-07-31T15:21:56;21.90;92.60
15815;DHT22;8008;50.024;8.172;2023-07-31T15:24:24;21.80;92.70
15815;DHT22;8008;50.024;8.172;2023-07-31T15:26:51;21.80;93.10
15815;DHT22;8008;50.024;8.172;2023-07-31T15:29:19;21.80;93.60
15815;DHT22;8008;50.024;8.172;2023-07-31T15:31:47;21.80;94.20
15815;DHT22;8008;50.024;8.172;2023-07-31T15:34:16;21.90;95.10
15815;DHT22;8008;50.024;8.172;2023-07-31T15:36:47;21.80;95.80
15815;DHT22;8008;50.024;8.172;2023-07-31T15:39:16;21.70;96.30
15815;DHT22;8008;50.024;8.172;2023-07-31T15:41:44;21.70;96.50
15815;DHT22;8008;50.024;8.172;2023-07-31T15:44:12;21.50;96.60
15815;DHT22;8008;50.024;8.172;2023-07-31T15:46:40;21.50;96.50
15815;DHT22;8008;50.024;8.172;2023-07-31T15:49:08;21.50;96.30
15815;DHT22;8008;50.024;8.172;2023-07-31T15:51:36;21.50;96.50
15815;DHT22;8008;50.024;8.172;2023-07-31T15:54:06;21.60;96.40
15815;DHT22;8008;50.024;8.172;2023-07-31T15:56:34;21.60;96.30
15815;DHT22;8008;50.024;8.172;2023-07-31T15:59:01;21.60;96.40
15815;DHT22;8008;50.024;8.172;2023-07-31T16:01:29;21.60;95.50
15815;DHT22;8008;50.024;8.172;2023-07-31T16:03:57;21.60;95.70
15815;DHT22;8008;50.024;8.172;2023-07-31T16:06:25;21.60;95.60
15815;DHT22;8008;50.024;8.172;2023-07-31T16:08:53;21.60;95.40
15815;DHT22;8008;50.024;8.172;2023-07-31T16:11:23;21.60;95.40
15815;DHT22;8008;50.024;8.172;2023-07-31T16:13:51;21.70;95.10
15815;DHT22;8008;50.024;8.172;2023-07-31T16:16:19;21.70;95.50
15815;DHT22;8008;50.024;8.172;2023-07-31T16:18:48;21.80;95.00
15815;DHT22;8008;50.024;8.172;2023-07-31T16:21:15;21.70;95.20
15815;DHT22;8008;50.024;8.172;2023-07-31T16:23:43;21.70;95.10
15815;DHT22;8008;50.024;8.172;2023-07-31T16:26:11;21.70;95.30
15815;DHT22;8008;50.024;8.172;2023-07-31T16:28:40;21.60;95.30
15815;DHT22;8008;50.024;8.172;2023-07-31T16:31:08;21.50;95.70
15815;DHT22;8008;50.024;8.172;2023-07-31T16:33:35;21.50;95.70
15815;DHT22;8008;50.024;8.172;2023-07-31T16:36:04;21.40;95.30
15815;DHT22;8008;50.024;8.172;2023-07-31T16:38:32;21.40;95.60
15815;DHT22;8008;50.024;8.172;2023-07-31T16:41:00;21.40;94.90
15815;DHT22;8008;50.024;8.172;2023-07-31T16:43:28;21.30;95.30
15815;DHT22;8008;50.024;8.172;2023-07-31T16:45:57;21.20;97.50
15815;DHT22;8008;50.024;8.172;2023-07-31T16:48:25;21.10;98.30
15815;DHT22;8008;50.024;8.172;2023-07-31T16:50:54;20.90;98.70
15815;DHT22;8008;50.024;8.172;2023-07-31T16:53:21;20.70;99.50
15815;DHT22;8008;50.024;8.172;2023-07-31T16:55:49;20.70;99.90
15815;DHT22;8008;50.024;8.172;2023-07-31T16:58:17;20.60;99.90
15815;DHT22;8008;50.024;8.172;2023-07-31T17:00:45;20.50;99.90
15815;DHT22;8008;50.024;8.172;2023-07-31T17:03:15;20.30;99.90
15815;DHT22;8008;50.024;8.172;2023-07-31T17:05:43;20.20;99.90
15815;DHT22;8008;50.024;8.172;2023-07-31T17:08:11;20.10;99.90
15815;DHT22;8008;50.024;8.172;2023-07-31T17:10:40;20.00;99.90
15815;DHT22;8008;50.024;8.172;2023-07-31T17:13:08;20.00;99.90
15815;DHT22;8008;50.024;8.172;2023-07-31T17:15:36;20.00;99.90
15815;DHT22;8008;50.024;8.172;2023-07-31T17:18:04;20.00;99.90
15815;DHT22;8008;50.024;8.172;2023-07-31T17:20:34;20.00;99.90
15815;DHT22;8008;50.024;8.172;2023-07-31T17:23:03;20.00;99.90
15815;DHT22;8008;50.024;8.172;2023-07-31T17:25:31;19.90;99.90
15815;DHT22;8008;50.024;8.172;2023-07-31T17:27:58;19.90;99.90
15815;DHT22;8008;50.024;8.172;2023-07-31T17:30:26;20.00;99.90
15815;DHT22;8008;50.024;8.172;2023-07-31T17:32:54;19.90;99.90
15815;DHT22;8008;50.024;8.172;2023-07-31T17:35:22;19.90;99.90
15815;DHT22;8008;50.024;8.172;2023-07-31T17:37:52;19.90;99.90
15815;DHT22;8008;50.024;8.172;2023-07-31T17:40:22;20.00;99.90
15815;DHT22;8008;50.024;8.172;2023-07-31T17:42:49;20.00;99.90
15815;DHT22;8008;50.024;8.172;2023-07-31T17:45:17;19.90;99.90
15815;DHT22;8008;50.024;8.172;2023-07-31T17:47:45;19.80;99.90
15815;DHT22;8008;50.024;8.172;2023-07-31T17:50:13;19.90;99.90
15815;DHT22;8008;50.024;8.172;2023-07-31T17:52:41;19.90;99.90
15815;DHT22;8008;50.024;8.172;2023-07-31T17:55:10;19.90;99.90
15815;DHT22;8008;50.024;8.172;2023-07-31T17:57:38;19.80;99.90
15815;DHT22;8008;50.024;8.172;2023-07-31T18:00:07;19.80;99.90
15815;DHT22;8008;50.024;8.172;2023-07-31T18:02:36;19.80;99.90
15815;DHT22;8008;50.024;8.172;2023-07-31T18:05:05;19.80;99.90
15815;DHT22;8008;50.024;8.172;2023-07-31T18:07:33;19.70;99.90
15815;DHT22;8008;50.024;8.172;2023-07-31T18:10:01;19.80;99.90
15815;DHT22;8008;50.024;8.172;2023-07-31T18:12:31;19.80;99.90
15815;DHT22;8008;50.024;8.172;2023-07-31T18:14:59;19.90;99.90
15815;DHT22;8008;50.024;8.172;2023-07-31T18:17:26;19.90;99.90
15815;DHT22;8008;50.024;8.172;2023-07-31T18:19:54;20.00;99.90
15815;DHT22;8008;50.024;8.172;2023-07-31T18:22:22;20.00;99.90
15815;DHT22;8008;50.024;8.172;2023-07-31T18:24:50;20.00;99.90
15815;DHT22;8008;50.024;8.172;2023-07-31T18:27:18;20.00;99.90
15815;DHT22;8008;50.024;8.172;2023-07-31T18:29:48;20.10;99.90
15815;DHT22;8008;50.024;8.172;2023-07-31T18:32:16;20.10;99.90
15815;DHT22;8008;50.024;8.172;2023-07-31T18:34:44;20.10;99.90
15815;DHT22;8008;50.024;8.172;2023-07-31T18:37:12;20.10;99.90
15815;DHT22;8008;50.024;8.172;2023-07-31T18:39:40;20.10;99.90
15815;DHT22;8008;50.024;8.172;2023-07-31T18:42:08;20.10;99.90
15815;DHT22;8008;50.024;8.172;2023-07-31T18:44:36;20.10;99.90
15815;DHT22;8008;50.024;8.172;2023-07-31T18:47:05;20.10;99.90
15815;DHT22;8008;50.024;8.172;2023-07-31T18:49:33;20.10;99.90
15815;DHT22;8008;50.024;8.172;2023-07-31T18:52:01;20.10;99.90
15815;DHT22;8008;50.024;8.172;2023-07-31T18:54:29;20.10;99.90